Terminal Aerodrome Forecast
Issued by NWS

Home | Current Version | Previous Version | Text Only | Print | Product List | Glossary On
Versions: 1 2 3 4 5 6 7 8 9 10 11 12 13
000
FTUS45 KABQ 200540
TAFTCC
TAF
KTCC 200540Z 2006/2106 26020G27KT P6SM BKN200
     FM201100 26025G35KT P6SM BKN200
     FM201700 26031G40KT P6SM BKN200
     FM210300 25013G18KT P6SM BKN200=

USA.gov is the U.S. government's official web portal to all federal, state and local government web resources and services.